Terminal Aerodrome Forecast
Issued by NWS Twin Cities, MN

Home | Current Version | Previous Version | Text Only | Print | Product List | Glossary On
Versions: 1 2 3 4 5 6 7 8 9 10 11 12 13 14 15 16 17 18
943
FTUS43 KMPX 072325
TAFEAU
TAF
KEAU 072325Z 0800/0824 26010KT P6SM OVC025
      TEMPO 0801/0804 3SM -SN BLSN OVC015
     FM080400 30014G22KT 2SM -SN BLSN OVC015
     FM081700 32015G24KT P6SM OVC015=

USA.gov is the U.S. government's official web portal to all federal, state and local government web resources and services.